createdAt,value
2017-09-07T00:01:44.199Z,2.43
2017-09-07T00:04:12.090Z,2.13
2017-09-07T00:06:39.686Z,2.10
2017-09-07T00:09:07.331Z,2.33
2017-09-07T00:11:34.921Z,2.30
2017-09-07T00:14:03.119Z,2.27
2017-09-07T00:16:30.734Z,2.27
2017-09-07T00:18:59.858Z,2.23
2017-09-07T00:21:27.418Z,2.20
2017-09-07T00:23:55.035Z,2.20
2017-09-07T00:26:23.475Z,1.80
2017-09-07T00:28:51.874Z,2.27
2017-09-07T00:31:19.519Z,2.73
2017-09-07T00:33:47.111Z,2.53
2017-09-07T00:36:15.386Z,2.50
2017-09-07T00:38:43.038Z,2.70
2017-09-07T00:41:11.486Z,2.10
2017-09-07T00:43:39.250Z,2.30
2017-09-07T00:46:06.875Z,2.10
2017-09-07T00:48:35.713Z,2.10
2017-09-07T00:51:03.378Z,2.10
2017-09-07T00:53:31.050Z,2.03
2017-09-07T00:55:59.046Z,1.83
2017-09-07T00:58:28.475Z,2.10
2017-09-07T01:00:56.134Z,2.47
2017-09-07T01:03:23.718Z,2.10
2017-09-07T01:05:51.287Z,2.30
2017-09-07T01:08:19.294Z,2.60
2017-09-07T01:10:46.902Z,2.47
2017-09-07T01:13:14.534Z,2.17
2017-09-07T01:15:42.158Z,2.27
2017-09-07T01:18:09.753Z,2.43
2017-09-07T01:20:37.414Z,2.20
2017-09-07T01:23:05.111Z,2.20
2017-09-07T01:25:32.781Z,2.23
2017-09-07T01:28:00.448Z,2.47
2017-09-07T01:30:28.115Z,2.30
2017-09-07T01:32:55.734Z,2.30
2017-09-07T01:35:23.301Z,2.13
2017-09-07T01:37:51.330Z,2.03
2017-09-07T01:40:18.923Z,2.20
2017-09-07T01:42:46.490Z,2.47
2017-09-07T01:45:14.087Z,2.27
2017-09-07T01:47:41.648Z,2.40
2017-09-07T01:50:09.234Z,2.27
2017-09-07T01:52:36.862Z,2.07
2017-09-07T01:55:04.479Z,2.23
2017-09-07T01:57:32.070Z,2.30
2017-09-07T01:59:59.718Z,2.00
2017-09-07T02:02:27.341Z,2.17
2017-09-07T02:04:55.069Z,2.80
2017-09-07T02:07:22.730Z,2.17
2017-09-07T02:09:52.579Z,1.97
2017-09-07T02:12:20.971Z,1.93
2017-09-07T02:14:49.029Z,2.20
2017-09-07T02:17:17.473Z,2.40
2017-09-07T02:19:45.954Z,2.17
2017-09-07T02:22:14.419Z,2.40
2017-09-07T02:24:44.234Z,2.23
2017-09-07T02:27:12.938Z,2.67
2017-09-07T02:29:40.969Z,2.23
2017-09-07T02:32:09.186Z,2.30
2017-09-07T02:34:36.755Z,2.53
2017-09-07T02:37:04.354Z,2.00
2017-09-07T02:39:32.718Z,2.67
2017-09-07T02:42:00.310Z,2.50
2017-09-07T02:44:27.906Z,2.30
2017-09-07T02:46:55.474Z,2.20
2017-09-07T02:49:23.076Z,1.90
2017-09-07T02:51:51.430Z,2.17
2017-09-07T02:54:18.986Z,2.30
2017-09-07T02:56:46.545Z,2.50
2017-09-07T02:59:14.178Z,2.10
2017-09-07T03:01:41.753Z,2.17
2017-09-07T03:04:09.313Z,2.27
2017-09-07T03:06:36.937Z,2.37
2017-09-07T03:09:04.723Z,2.13
2017-09-07T03:11:32.310Z,2.73
2017-09-07T03:13:59.910Z,2.50
2017-09-07T03:16:27.482Z,2.23
2017-09-07T03:18:57.695Z,2.60
2017-09-07T03:21:25.288Z,2.13
2017-09-07T03:23:52.849Z,2.53
2017-09-07T03:26:20.442Z,2.53
2017-09-07T03:28:48.118Z,2.63
2017-09-07T03:31:15.716Z,2.20
2017-09-07T03:33:43.285Z,2.10
2017-09-07T03:36:11.289Z,2.00
2017-09-07T03:38:38.922Z,2.77
2017-09-07T03:41:06.558Z,2.17
2017-09-07T03:43:34.150Z,2.47
2017-09-07T03:46:01.723Z,2.50
2017-09-07T03:48:29.290Z,2.60
2017-09-07T03:50:56.882Z,2.30
2017-09-07T03:53:24.472Z,2.13
2017-09-07T03:55:52.071Z,2.30
2017-09-07T03:58:19.694Z,2.73
2017-09-07T04:00:47.422Z,2.13
2017-09-07T04:03:15.012Z,2.00
2017-09-07T04:05:42.607Z,2.53
2017-09-07T04:08:10.182Z,2.23
2017-09-07T04:10:37.771Z,2.00
2017-09-07T04:13:05.367Z,2.60
2017-09-07T04:15:32.998Z,2.40
2017-09-07T04:18:00.586Z,2.30
2017-09-07T04:20:28.202Z,2.20
2017-09-07T04:22:55.799Z,2.40
2017-09-07T04:25:23.391Z,2.30
2017-09-07T04:27:51.022Z,2.50
2017-09-07T04:30:18.589Z,2.30
2017-09-07T04:32:46.146Z,2.33
2017-09-07T04:35:13.766Z,2.50
2017-09-07T04:37:41.354Z,2.10
2017-09-07T04:40:08.922Z,2.50
2017-09-07T04:42:36.510Z,2.57
2017-09-07T04:45:04.082Z,2.47
2017-09-07T04:47:31.646Z,2.03
2017-09-07T04:49:59.274Z,2.53
2017-09-07T04:52:26.843Z,2.47
2017-09-07T04:54:54.410Z,2.00
2017-09-07T04:57:22.058Z,1.90
2017-09-07T04:59:49.638Z,2.60
2017-09-07T05:02:17.199Z,2.53
2017-09-07T05:04:44.818Z,2.57
2017-09-07T05:07:12.410Z,2.30
2017-09-07T05:09:39.979Z,2.17
2017-09-07T05:12:07.635Z,2.37
2017-09-07T05:14:35.210Z,2.57
2017-09-07T05:17:02.778Z,2.50
2017-09-07T05:19:30.699Z,2.13
2017-09-07T05:21:58.290Z,2.67
2017-09-07T05:24:25.882Z,2.80
2017-09-07T05:26:53.502Z,2.97
2017-09-07T05:29:21.090Z,2.90
2017-09-07T05:31:48.678Z,3.43
2017-09-07T05:34:16.270Z,3.10
2017-09-07T05:36:43.839Z,3.07
2017-09-07T05:39:47.403Z,2.80
2017-09-07T05:42:14.974Z,3.10
2017-09-07T05:44:42.538Z,3.50
2017-09-07T05:47:10.155Z,3.80
2017-09-07T05:49:37.766Z,3.63
2017-09-07T05:52:05.332Z,3.60
2017-09-07T05:54:32.926Z,3.97
2017-09-07T05:57:00.527Z,3.37
2017-09-07T05:59:28.122Z,3.70
2017-09-07T06:01:55.766Z,4.33
2017-09-07T06:04:23.338Z,4.33
2017-09-07T06:06:50.930Z,4.80
2017-09-07T06:09:18.670Z,4.03
2017-09-07T06:11:46.278Z,4.70
2017-09-07T06:14:13.882Z,3.80
2017-09-07T06:16:42.255Z,4.83
2017-09-07T06:19:09.826Z,10.67
2017-09-07T06:21:38.174Z,11.67
2017-09-07T06:24:05.772Z,7.30
2017-09-07T06:26:33.370Z,9.87
2017-09-07T06:29:00.962Z,7.50
2017-09-07T06:31:28.586Z,8.50
2017-09-07T06:33:56.178Z,6.03
2017-09-07T06:36:23.741Z,6.50
2017-09-07T06:38:51.338Z,5.90
2017-09-07T06:41:18.931Z,5.43
2017-09-07T06:43:46.522Z,5.20
2017-09-07T06:46:14.854Z,5.27
2017-09-07T06:48:43.178Z,4.80
2017-09-07T06:51:10.814Z,4.83
2017-09-07T06:53:38.443Z,4.80
2017-09-07T06:56:06.674Z,4.97
2017-09-07T06:58:34.241Z,5.43
2017-09-07T07:01:02.686Z,4.67
2017-09-07T07:03:30.283Z,4.50
2017-09-07T07:05:57.888Z,4.30
2017-09-07T07:08:25.516Z,4.07
2017-09-07T07:10:53.305Z,4.30
2017-09-07T07:13:20.874Z,4.07
2017-09-07T07:15:48.463Z,3.80
2017-09-07T07:18:16.055Z,3.90
2017-09-07T07:20:44.234Z,3.93
2017-09-07T07:23:11.871Z,4.13
2017-09-07T07:25:40.189Z,3.60
2017-09-07T07:28:08.566Z,3.93
2017-09-07T07:30:36.175Z,3.67
2017-09-07T07:33:03.767Z,9.63
2017-09-07T07:35:31.366Z,22.07
2017-09-07T07:37:58.981Z,18.80
2017-09-07T07:40:26.563Z,11.60
2017-09-07T07:42:54.151Z,8.30
2017-09-07T07:45:21.774Z,8.47
2017-09-07T07:47:49.378Z,7.83
2017-09-07T07:50:16.946Z,7.60
2017-09-07T07:52:44.812Z,7.30
2017-09-07T07:55:12.446Z,7.20
2017-09-07T07:57:40.030Z,7.40
2017-09-07T08:00:07.698Z,7.63
2017-09-07T08:02:35.307Z,7.17
2017-09-07T08:05:03.649Z,7.40
2017-09-07T08:07:31.338Z,9.50
2017-09-07T08:09:58.910Z,7.50
2017-09-07T08:12:26.506Z,6.13
2017-09-07T08:14:54.126Z,6.90
2017-09-07T08:17:21.722Z,6.57
2017-09-07T08:19:49.338Z,7.50
2017-09-07T08:22:16.938Z,6.80
2017-09-07T08:24:45.277Z,8.00
2017-09-07T08:27:12.899Z,6.90
2017-09-07T08:29:40.543Z,7.70
2017-09-07T08:32:08.121Z,7.20
2017-09-07T08:34:35.713Z,6.97
2017-09-07T08:37:03.362Z,8.73
2017-09-07T08:39:30.955Z,8.53
2017-09-07T08:41:58.585Z,7.30
2017-09-07T08:44:26.202Z,7.37
2017-09-07T08:46:53.790Z,7.07
2017-09-07T08:49:21.822Z,7.57
2017-09-07T08:51:49.437Z,7.50
2017-09-07T08:54:18.139Z,7.50
2017-09-07T08:56:45.712Z,6.43
2017-09-07T08:59:13.911Z,8.00
2017-09-07T09:01:42.242Z,7.20
2017-09-07T09:04:13.885Z,7.07
2017-09-07T09:06:46.067Z,6.50
2017-09-07T09:09:13.951Z,6.83
2017-09-07T09:11:41.825Z,7.70
2017-09-07T09:14:11.227Z,6.83
2017-09-07T09:16:39.439Z,7.17
2017-09-07T09:19:07.034Z,8.50
2017-09-07T09:21:34.671Z,6.30
2017-09-07T09:24:02.298Z,7.20
2017-09-07T09:26:29.866Z,7.00
2017-09-07T09:28:57.487Z,6.50
2017-09-07T09:31:25.067Z,7.90
2017-09-07T09:33:52.684Z,8.10
2017-09-07T09:36:20.402Z,8.00
2017-09-07T09:38:47.990Z,8.10
2017-09-07T09:41:17.890Z,8.87
2017-09-07T09:43:45.510Z,7.93
2017-09-07T09:46:13.106Z,7.70
2017-09-07T09:48:40.679Z,8.37
2017-09-07T09:51:08.270Z,9.20
2017-09-07T09:53:39.099Z,9.00
2017-09-07T09:56:06.699Z,8.30
2017-09-07T09:58:34.327Z,8.50
2017-09-07T10:01:01.898Z,7.80
2017-09-07T10:03:29.471Z,7.43
2017-09-07T10:05:57.103Z,8.50
2017-09-07T10:08:24.675Z,8.57
2017-09-07T10:10:52.238Z,8.30
2017-09-07T10:13:20.303Z,8.60
2017-09-07T10:15:47.899Z,7.80
2017-09-07T10:18:15.483Z,8.90
2017-09-07T10:20:43.111Z,7.93
2017-09-07T10:23:10.711Z,8.67
2017-09-07T10:25:38.291Z,8.07
2017-09-07T10:28:05.894Z,8.00
2017-09-07T10:30:33.482Z,7.70
2017-09-07T10:33:01.637Z,8.03
2017-09-07T10:35:30.126Z,7.60
2017-09-07T10:37:57.707Z,8.00
2017-09-07T10:40:25.278Z,7.47
2017-09-07T10:42:53.522Z,8.13
2017-09-07T10:45:21.117Z,6.93
2017-09-07T10:47:48.694Z,7.43
2017-09-07T10:50:16.286Z,6.90
2017-09-07T10:52:43.886Z,7.60
2017-09-07T10:55:11.494Z,7.37
2017-09-07T10:57:39.129Z,7.77
2017-09-07T11:00:06.815Z,8.00
2017-09-07T11:02:34.398Z,7.10
2017-09-07T11:05:02.822Z,6.80
2017-09-07T11:07:30.398Z,8.30
2017-09-07T11:09:57.966Z,7.80
2017-09-07T11:12:25.570Z,7.27
2017-09-07T11:14:53.143Z,7.07
2017-09-07T11:17:20.744Z,7.23
2017-09-07T11:19:48.350Z,7.50
2017-09-07T11:22:15.913Z,7.17
2017-09-07T11:24:43.504Z,7.13
2017-09-07T11:27:11.127Z,7.13
2017-09-07T11:29:38.703Z,7.30
2017-09-07T11:32:06.266Z,6.87
2017-09-07T11:34:33.871Z,7.53
2017-09-07T11:37:01.491Z,7.87
2017-09-07T11:39:29.074Z,6.67
2017-09-07T11:41:57.231Z,7.20
2017-09-07T11:44:24.823Z,7.37
2017-09-07T11:46:52.410Z,7.30
2017-09-07T11:49:20.030Z,7.20
2017-09-07T11:51:47.610Z,7.30
2017-09-07T11:54:15.231Z,6.93
2017-09-07T11:56:42.855Z,7.03
2017-09-07T11:59:10.452Z,7.23
2017-09-07T12:01:38.047Z,7.20
2017-09-07T12:04:05.650Z,7.50
2017-09-07T12:06:33.214Z,7.23
2017-09-07T12:09:00.778Z,8.17
2017-09-07T12:11:28.371Z,7.03
2017-09-07T12:13:55.934Z,7.47
2017-09-07T12:16:23.519Z,6.90
2017-09-07T12:18:51.147Z,6.20
2017-09-07T12:21:18.720Z,6.50
2017-09-07T12:23:46.315Z,6.67
2017-09-07T12:26:13.931Z,6.50
2017-09-07T12:28:41.532Z,6.77
2017-09-07T12:31:09.867Z,6.93
2017-09-07T12:33:37.458Z,6.53
2017-09-07T12:36:05.023Z,6.87
2017-09-07T12:38:32.594Z,7.10
2017-09-07T12:41:00.214Z,6.60
2017-09-07T12:43:27.786Z,7.30
2017-09-07T12:45:55.378Z,6.83
2017-09-07T12:48:23.013Z,7.13
2017-09-07T12:50:51.233Z,6.87
2017-09-07T12:53:18.819Z,6.10
2017-09-07T12:55:46.434Z,6.60
2017-09-07T12:58:13.998Z,6.20
2017-09-07T13:00:41.586Z,6.40
2017-09-07T13:03:09.186Z,6.30
2017-09-07T13:05:36.755Z,6.60
2017-09-07T13:08:04.326Z,6.47
2017-09-07T13:10:31.999Z,6.60
2017-09-07T13:12:59.566Z,5.70
2017-09-07T13:15:27.143Z,7.20
2017-09-07T13:17:54.809Z,6.20
2017-09-07T13:20:22.427Z,6.57
2017-09-07T13:22:49.994Z,6.90
2017-09-07T13:25:17.760Z,5.80
2017-09-07T13:27:45.331Z,5.70
2017-09-07T13:30:13.025Z,6.83
2017-09-07T13:32:40.627Z,5.93
2017-09-07T13:35:08.240Z,6.50
2017-09-07T13:37:35.848Z,5.80
2017-09-07T13:40:03.535Z,6.43
2017-09-07T13:42:31.134Z,6.20
2017-09-07T13:44:58.718Z,6.20
2017-09-07T13:47:26.336Z,5.87
2017-09-07T13:49:53.935Z,6.23
2017-09-07T13:52:21.531Z,6.00
2017-09-07T13:54:49.130Z,5.53
2017-09-07T13:57:16.701Z,6.97
2017-09-07T13:59:44.294Z,6.50
2017-09-07T14:02:12.602Z,6.30
2017-09-07T14:04:40.195Z,5.97
2017-09-07T14:07:07.763Z,6.83
2017-09-07T14:09:35.374Z,6.07
2017-09-07T14:12:02.968Z,5.67
2017-09-07T14:14:30.567Z,5.70
2017-09-07T14:16:58.159Z,6.00
2017-09-07T14:19:25.727Z,6.07
2017-09-07T14:21:53.291Z,5.60
2017-09-07T14:24:21.838Z,5.60
2017-09-07T14:26:49.434Z,6.47
2017-09-07T14:29:17.031Z,6.17
2017-09-07T14:31:44.638Z,6.43
2017-09-07T14:34:12.549Z,6.00
2017-09-07T14:36:40.135Z,6.80
2017-09-07T14:39:07.812Z,6.07
2017-09-07T14:41:35.400Z,5.40
2017-09-07T14:44:02.987Z,5.50
2017-09-07T14:46:31.030Z,6.23
2017-09-07T14:48:58.608Z,6.30
2017-09-07T14:51:26.179Z,5.83
2017-09-07T14:53:53.786Z,6.17
2017-09-07T14:56:22.157Z,5.77
2017-09-07T14:58:49.798Z,5.80
2017-09-07T15:01:17.425Z,5.80
2017-09-07T15:03:44.990Z,5.00
2017-09-07T15:06:12.595Z,5.63
2017-09-07T15:08:40.221Z,5.80
2017-09-07T15:11:07.818Z,6.20
2017-09-07T15:13:35.940Z,5.90
2017-09-07T15:16:03.579Z,6.20
2017-09-07T15:18:31.179Z,5.80
2017-09-07T15:20:58.755Z,5.63
2017-09-07T15:23:26.354Z,5.97
2017-09-07T15:25:53.959Z,5.60
2017-09-07T15:28:21.557Z,5.10
2017-09-07T15:30:49.187Z,5.57
2017-09-07T15:33:16.767Z,5.07
2017-09-07T15:35:44.363Z,6.00
2017-09-07T15:38:11.966Z,5.83
2017-09-07T15:40:40.116Z,6.20
2017-09-07T15:43:07.720Z,4.80
2017-09-07T15:45:35.346Z,5.30
2017-09-07T15:48:02.939Z,5.50
2017-09-07T15:50:30.510Z,5.70
2017-09-07T15:52:58.102Z,5.60
2017-09-07T15:55:25.666Z,5.80
2017-09-07T15:57:53.259Z,5.70
2017-09-07T16:00:21.219Z,5.90
2017-09-07T16:02:48.778Z,5.30
2017-09-07T16:05:16.371Z,5.13
2017-09-07T16:07:43.994Z,4.73
2017-09-07T16:10:11.587Z,5.17
2017-09-07T16:12:39.186Z,5.13
2017-09-07T16:15:06.787Z,5.93
2017-09-07T16:17:34.384Z,5.53
2017-09-07T16:20:01.983Z,5.60
2017-09-07T16:22:30.151Z,5.57
2017-09-07T16:24:57.726Z,5.77
2017-09-07T16:27:25.316Z,5.63
2017-09-07T16:29:52.942Z,5.67
2017-09-07T16:32:20.510Z,5.07
2017-09-07T16:34:48.272Z,4.90
2017-09-07T16:37:23.161Z,5.27
2017-09-07T16:39:52.459Z,5.40
2017-09-07T16:42:20.216Z,4.87
2017-09-07T16:44:48.746Z,5.17
2017-09-07T16:47:16.940Z,5.60
2017-09-07T16:49:46.749Z,5.63
2017-09-07T16:52:16.038Z,5.70
2017-09-07T16:54:43.630Z,5.10
2017-09-07T16:57:11.214Z,5.10
2017-09-07T16:59:39.578Z,5.30
2017-09-07T17:02:07.179Z,5.80
2017-09-07T17:04:34.779Z,5.10
2017-09-07T17:07:03.262Z,4.93
2017-09-07T17:09:30.887Z,4.70
2017-09-07T17:11:58.558Z,4.90
2017-09-07T17:14:26.172Z,5.30
2017-09-07T17:16:53.746Z,5.70
2017-09-07T17:19:21.311Z,5.50
2017-09-07T17:21:48.910Z,4.77
2017-09-07T17:24:17.107Z,5.13
2017-09-07T17:26:44.820Z,5.87
2017-09-07T17:29:12.505Z,5.10
2017-09-07T17:31:40.085Z,4.90
2017-09-07T17:34:07.714Z,5.37
2017-09-07T17:36:35.318Z,4.87
2017-09-07T17:39:02.948Z,5.43
2017-09-07T17:41:31.462Z,4.97
2017-09-07T17:43:59.124Z,5.17
2017-09-07T17:46:26.696Z,5.20
2017-09-07T17:48:54.297Z,4.90
2017-09-07T17:51:21.898Z,5.27
2017-09-07T17:53:49.499Z,4.90
2017-09-07T17:56:17.634Z,5.40
2017-09-07T17:58:45.265Z,5.20
2017-09-07T18:01:13.739Z,5.10
2017-09-07T18:03:41.350Z,5.17
2017-09-07T18:06:10.578Z,4.90
2017-09-07T18:08:38.185Z,5.63
2017-09-07T18:11:06.494Z,5.30
2017-09-07T18:13:34.108Z,5.45
2017-09-07T18:16:01.683Z,5.33
2017-09-07T18:18:29.324Z,5.90
2017-09-07T18:20:56.960Z,5.27
2017-09-07T18:23:24.563Z,5.30
2017-09-07T18:25:52.135Z,5.10
2017-09-07T18:28:19.795Z,4.60
2017-09-07T18:30:47.375Z,5.30
2017-09-07T18:33:15.281Z,5.73
2017-09-07T18:35:42.913Z,5.03
2017-09-07T18:38:11.179Z,5.03
2017-09-07T18:40:38.755Z,5.30
2017-09-07T18:43:06.380Z,4.87
2017-09-07T18:45:33.950Z,4.90
2017-09-07T18:48:01.517Z,5.20
2017-09-07T18:50:29.123Z,5.00
2017-09-07T18:52:57.563Z,5.47
2017-09-07T18:55:25.159Z,5.00
2017-09-07T18:57:52.779Z,5.50
2017-09-07T19:00:20.404Z,5.40
2017-09-07T19:02:47.974Z,5.17
2017-09-07T19:05:16.776Z,4.77
2017-09-07T19:07:44.374Z,5.10
2017-09-07T19:10:11.946Z,4.90
2017-09-07T19:12:39.539Z,4.50
2017-09-07T19:15:07.147Z,5.13
2017-09-07T19:17:34.747Z,4.60
2017-09-07T19:20:04.095Z,5.97
2017-09-07T19:22:31.695Z,5.20
2017-09-07T19:24:59.272Z,4.70
2017-09-07T19:27:26.879Z,5.33
2017-09-07T19:30:08.680Z,5.60
2017-09-07T19:32:42.826Z,5.60
2017-09-07T19:35:10.471Z,5.60
2017-09-07T19:37:38.046Z,5.87
2017-09-07T19:40:05.616Z,4.60
2017-09-07T19:42:33.242Z,4.50
2017-09-07T19:45:00.852Z,3.60
2017-09-07T19:47:28.439Z,4.27
2017-09-07T19:50:00.017Z,3.73
2017-09-07T19:52:27.635Z,5.20
2017-09-07T19:54:55.231Z,3.77
2017-09-07T19:57:22.836Z,4.70
2017-09-07T19:59:50.967Z,3.50
2017-09-07T20:02:18.583Z,3.83
2017-09-07T20:04:46.977Z,3.43
2017-09-07T20:07:14.576Z,3.70
2017-09-07T20:09:42.798Z,3.57
2017-09-07T20:12:11.236Z,3.70
2017-09-07T20:14:38.837Z,3.00
2017-09-07T20:17:06.439Z,3.40
2017-09-07T20:19:44.531Z,2.97
2017-09-07T20:22:13.087Z,2.53
2017-09-07T20:24:40.704Z,3.17
2017-09-07T20:27:08.484Z,3.43
2017-09-07T20:29:36.464Z,2.90
2017-09-07T20:32:05.793Z,2.93
2017-09-07T20:34:35.546Z,2.80
2017-09-07T20:37:06.401Z,3.57
2017-09-07T20:39:39.851Z,2.90
2017-09-07T20:42:14.207Z,2.60
2017-09-07T20:44:43.531Z,3.30
2017-09-07T20:47:11.328Z,4.00
2017-09-07T20:49:45.575Z,3.60
2017-09-07T20:52:13.184Z,4.10
2017-09-07T20:54:41.645Z,3.77
2017-09-07T20:57:09.231Z,3.63
2017-09-07T20:59:37.591Z,3.13
2017-09-07T21:02:05.306Z,3.70
2017-09-07T21:04:32.919Z,4.10
2017-09-07T21:07:00.560Z,3.30
2017-09-07T21:09:29.415Z,3.67
2017-09-07T21:11:57.028Z,3.47
2017-09-07T21:14:25.484Z,3.73
2017-09-07T21:16:53.157Z,3.20
2017-09-07T21:19:20.810Z,2.87
2017-09-07T21:21:48.423Z,3.50
2017-09-07T21:24:18.917Z,2.97
2017-09-07T21:26:47.753Z,2.53
2017-09-07T21:29:15.375Z,4.53
2017-09-07T21:31:42.983Z,3.70
2017-09-07T21:34:10.615Z,2.70
2017-09-07T21:36:38.214Z,3.37
2017-09-07T21:39:06.736Z,3.40
2017-09-07T21:41:35.000Z,3.03
2017-09-07T21:44:02.598Z,3.23
2017-09-07T21:46:30.222Z,2.80
2017-09-07T21:48:57.830Z,2.80
2017-09-07T21:51:25.410Z,3.10
2017-09-07T21:53:53.521Z,3.07
2017-09-07T21:56:22.000Z,2.87
2017-09-07T21:58:49.616Z,2.43
2017-09-07T22:01:17.478Z,3.00
2017-09-07T22:03:45.085Z,3.03
2017-09-07T22:06:12.664Z,3.10
2017-09-07T22:08:40.296Z,2.90
2017-09-07T22:11:07.903Z,2.50
2017-09-07T22:13:35.498Z,3.23
2017-09-07T22:16:03.109Z,2.53
2017-09-07T22:18:30.726Z,3.50
2017-09-07T22:20:58.323Z,3.33
2017-09-07T22:23:25.956Z,2.30
2017-09-07T22:25:53.565Z,3.00
2017-09-07T22:28:21.142Z,2.80
2017-09-07T22:30:48.735Z,2.70
2017-09-07T22:33:16.374Z,2.87
2017-09-07T22:35:43.975Z,3.07
2017-09-07T22:38:11.602Z,3.00
2017-09-07T22:40:43.204Z,3.20
2017-09-07T22:43:11.403Z,3.20
2017-09-07T22:45:39.778Z,2.90
2017-09-07T22:48:08.096Z,3.10
2017-09-07T22:50:35.702Z,2.70
2017-09-07T22:53:03.303Z,2.20
2017-09-07T22:55:31.598Z,3.27
2017-09-07T22:57:59.207Z,2.70
2017-09-07T23:00:31.330Z,2.60
2017-09-07T23:02:58.971Z,3.10
2017-09-07T23:05:26.551Z,2.60
2017-09-07T23:07:54.147Z,2.80
2017-09-07T23:10:21.739Z,2.70
2017-09-07T23:12:49.886Z,3.00
2017-09-07T23:15:17.509Z,2.73
2017-09-07T23:17:45.086Z,3.30
2017-09-07T23:20:12.679Z,3.10
2017-09-07T23:22:40.278Z,2.67
2017-09-07T23:25:07.838Z,2.60
2017-09-07T23:27:35.403Z,2.67
2017-09-07T23:30:03.064Z,3.00
2017-09-07T23:32:30.630Z,2.93
2017-09-07T23:34:58.191Z,2.90
2017-09-07T23:37:25.786Z,2.77
2017-09-07T23:39:53.552Z,2.90
2017-09-07T23:42:21.142Z,2.63
2017-09-07T23:44:48.758Z,2.80
2017-09-07T23:47:16.330Z,2.70
2017-09-07T23:49:43.922Z,2.53
2017-09-07T23:52:11.515Z,2.50
2017-09-07T23:54:39.866Z,2.67
2017-09-07T23:57:08.390Z,2.80
2017-09-07T23:59:36.374Z,2.90
